Time;durP1;ratioP1;P1;durP2;ratioP2;P2;SDS_P1;SDS_P2;PMS_P1;PMS_P2;Temp;Humidity;BMP_temperature;BMP_pressure;BME280_temperature;BME280_humidity;BME280_pressure;Samples;Min_cycle;Max_cycle;Signal;HPM_P1;HPM_P2
2023/09/30 00:02:19;;;;;;;0.00;0.00;;;;;;;12.26;93.10;101331.63;4882717;29;20073;-74
2023/09/30 00:04:45;;;;;;;0.00;0.00;;;;;;;12.29;93.02;101337.44;4870066;29;20375;-75
2023/09/30 00:07:13;;;;;;;0.00;0.00;;;;;;;12.22;92.55;101325.81;4871993;29;20136;-74
2023/09/30 00:09:40;;;;;;;0.00;0.00;;;;;;;12.21;93.07;101313.22;4889740;29;20033;-75
2023/09/30 00:12:08;;;;;;;0.00;0.00;;;;;;;12.16;92.78;101310.38;4867088;29;20028;-73
2023/09/30 00:14:33;;;;;;;0.00;0.00;;;;;;;12.12;93.16;101315.56;4886100;29;20094;-73
2023/09/30 00:16:59;;;;;;;0.00;0.00;;;;;;;12.20;92.95;101300.56;4855154;29;20036;-73
2023/09/30 00:19:24;;;;;;;0.00;0.00;;;;;;;12.20;92.48;101306.88;4861861;29;20383;-74
2023/09/30 00:21:50;;;;;;;0.00;0.00;;;;;;;12.31;92.26;101307.84;4889820;29;20028;-74
2023/09/30 00:24:15;;;;;;;0.00;0.00;;;;;;;12.29;92.27;101309.19;4878330;29;20052;-75
2023/09/30 00:26:43;;;;;;;0.00;0.00;;;;;;;12.30;92.19;101327.31;4872418;29;20029;-75
2023/09/30 00:29:10;;;;;;;0.00;0.00;;;;;;;12.32;91.83;101325.94;4867322;29;20033;-73
2023/09/30 00:31:42;;;;;;;0.00;0.00;;;;;;;12.34;91.86;101333.94;4864930;29;20036;-74
2023/09/30 00:34:11;;;;;;;0.00;0.00;;;;;;;12.33;92.36;101341.31;4867815;29;20040;-75
2023/09/30 00:36:37;;;;;;;0.00;0.00;;;;;;;12.28;91.93;101338.53;4883890;29;20060;-74
2023/09/30 00:39:09;;;;;;;0.00;0.00;;;;;;;12.34;91.91;101362.19;4893130;29;20047;-75
2023/09/30 00:41:39;;;;;;;0.00;0.00;;;;;;;12.19;92.31;101348.28;4852436;29;20078;-74
2023/09/30 00:44:04;;;;;;;0.00;0.00;;;;;;;12.14;92.29;101342.72;4880747;29;20032;-75
2023/09/30 00:46:35;;;;;;;0.00;0.00;;;;;;;12.14;92.31;101346.28;4876263;29;20096;-74
2023/09/30 00:49:02;;;;;;;0.00;0.00;;;;;;;12.15;92.54;101336.16;4884843;29;20039;-74
2023/09/30 00:51:30;;;;;;;0.00;0.00;;;;;;;12.09;92.88;101348.13;4883682;29;20376;-74
2023/09/30 00:54:00;;;;;;;0.00;0.00;;;;;;;11.99;93.16;101337.88;4880711;29;20048;-74
2023/09/30 00:56:28;;;;;;;0.00;0.00;;;;;;;11.94;93.18;101333.13;4883915;29;20048;-74
2023/09/30 00:58:54;;;;;;;0.00;0.00;;;;;;;11.91;94.15;101351.97;4882549;29;20111;-73
2023/09/30 01:01:24;;;;;;;0.00;0.00;;;;;;;11.80;94.35;101351.84;4885918;29;20055;-75
2023/09/30 01:03:55;;;;;;;0.00;0.00;;;;;;;11.76;94.02;101338.88;4882688;29;20067;-75
2023/09/30 01:06:23;;;;;;;0.00;0.00;;;;;;;11.73;94.25;101344.88;4883475;29;20029;-73
2023/09/30 01:08:48;;;;;;;0.00;0.00;;;;;;;11.74;94.79;101352.84;4882074;29;20101;-75
2023/09/30 01:11:15;;;;;;;0.00;0.00;;;;;;;11.64;95.29;101348.03;4876987;29;20081;-76
2023/09/30 01:13:42;;;;;;;0.00;0.00;;;;;;;11.58;95.49;101354.50;4870129;29;20044;-74
2023/09/30 01:16:09;;;;;;;0.00;0.00;;;;;;;11.56;95.19;101351.19;4875168;29;20033;-74
2023/09/30 01:18:36;;;;;;;0.00;0.00;;;;;;;11.52;95.56;101350.00;4869783;29;20353;-74
2023/09/30 01:21:06;;;;;;;0.00;0.00;;;;;;;11.49;96.03;101345.03;4881371;29;20037;-75
2023/09/30 01:23:33;;;;;;;0.00;0.00;;;;;;;11.44;96.29;101342.22;4874682;29;20626;-73
2023/09/30 01:26:03;;;;;;;0.00;0.00;;;;;;;11.37;96.71;101353.34;4880549;29;20056;-75
2023/09/30 01:28:30;;;;;;;0.00;0.00;;;;;;;11.29;97.25;101349.13;4850659;29;20047;-74
2023/09/30 01:30:56;;;;;;;0.00;0.00;;;;;;;11.25;97.32;101339.72;4871909;29;20029;-73
2023/09/30 01:33:22;;;;;;;0.00;0.00;;;;;;;11.23;97.47;101347.38;4860647;29;20032;-75
2023/09/30 01:35:47;;;;;;;0.00;0.00;;;;;;;11.22;98.08;101351.19;4888789;29;20044;-75
2023/09/30 01:38:13;;;;;;;0.00;0.00;;;;;;;11.19;98.37;101340.72;4879550;29;20032;-74
2023/09/30 01:40:38;;;;;;;0.00;0.00;;;;;;;11.15;98.49;101325.88;4882232;29;20440;-74
2023/09/30 01:43:04;;;;;;;0.00;0.00;;;;;;;11.20;98.55;101323.25;4859036;29;20029;-74
2023/09/30 01:45:29;;;;;;;0.00;0.00;;;;;;;11.20;98.46;101314.19;4848665;29;20040;-74
2023/09/30 01:47:55;;;;;;;0.00;0.00;;;;;;;11.19;98.37;101307.88;4848846;29;20029;-74
2023/09/30 01:50:20;;;;;;;0.00;0.00;;;;;;;11.19;98.40;101313.34;4881213;29;20044;-74
2023/09/30 01:52:46;;;;;;;0.00;0.00;;;;;;;11.21;98.14;101333.09;4883208;29;20025;-73
2023/09/30 01:55:11;;;;;;;0.00;0.00;;;;;;;11.19;98.42;101327.03;4860787;29;20043;-74
2023/09/30 01:57:37;;;;;;;0.00;0.00;;;;;;;11.15;98.09;101312.19;4897107;29;20029;-74
2023/09/30 02:00:03;;;;;;;0.00;0.00;;;;;;;11.16;98.57;101302.91;4869090;29;20036;-74
2023/09/30 02:02:28;;;;;;;0.00;0.00;;;;;;;11.11;98.78;101289.13;4883552;29;20581;-75
2023/09/30 02:04:54;;;;;;;0.00;0.00;;;;;;;11.15;98.71;101290.28;4851299;29;20028;-75
2023/09/30 02:07:19;;;;;;;0.00;0.00;;;;;;;11.25;98.30;101298.66;4858806;29;20036;-73
2023/09/30 02:09:44;;;;;;;0.00;0.00;;;;;;;11.29;98.05;101291.63;4862743;29;20056;-73
2023/09/30 02:12:10;;;;;;;0.00;0.00;;;;;;;11.35;98.45;101298.81;4868550;29;20037;-73
2023/09/30 02:14:35;;;;;;;0.00;0.00;;;;;;;11.39;98.00;101290.97;4877902;29;20036;-72
2023/09/30 02:17:01;;;;;;;0.00;0.00;;;;;;;11.45;98.06;101294.59;4882722;29;20028;-73
2023/09/30 02:19:27;;;;;;;0.00;0.00;;;;;;;11.51;97.65;101299.88;4867680;29;20431;-72
2023/09/30 02:21:53;;;;;;;0.00;0.00;;;;;;;11.50;97.56;101294.66;4898140;29;20048;-72
2023/09/30 02:24:18;;;;;;;0.00;0.00;;;;;;;11.53;97.48;101296.91;4881053;29;20128;-72
2023/09/30 02:26:44;;;;;;;0.00;0.00;;;;;;;11.49;97.47;101279.31;4852056;29;20532;-73
2023/09/30 02:29:09;;;;;;;0.00;0.00;;;;;;;11.46;97.50;101280.66;4852201;29;20029;-73
2023/09/30 02:31:35;;;;;;;0.00;0.00;;;;;;;11.45;97.92;101294.59;4856453;29;20052;-73
2023/09/30 02:34:03;;;;;;;0.00;0.00;;;;;;;11.41;98.05;101297.00;4883493;29;20029;-74
2023/09/30 02:36:29;;;;;;;0.00;0.00;;;;;;;11.37;97.85;101295.00;4869425;29;20762;-72
2023/09/30 02:38:54;;;;;;;0.00;0.00;;;;;;;11.33;98.32;101298.25;4863261;29;20084;-73
2023/09/30 02:41:20;;;;;;;0.00;0.00;;;;;;;11.32;98.11;101291.13;4864721;29;20060;-73
2023/09/30 02:43:46;;;;;;;0.00;0.00;;;;;;;11.31;98.31;101300.41;4884944;29;20544;-73
2023/09/30 02:46:13;;;;;;;0.00;0.00;;;;;;;11.30;98.70;101297.91;4871977;29;20483;-73
2023/09/30 02:48:38;;;;;;;0.00;0.00;;;;;;;11.24;98.41;101297.00;4884092;29;20487;-73
2023/09/30 02:51:04;;;;;;;0.00;0.00;;;;;;;11.21;98.61;101305.72;4875021;29;20073;-74
2023/09/30 02:53:29;;;;;;;0.00;0.00;;;;;;;11.16;99.15;101297.44;4868465;29;20036;-74
2023/09/30 02:55:56;;;;;;;0.00;0.00;;;;;;;11.11;99.04;101308.28;4858238;29;20052;-74
2023/09/30 02:58:23;;;;;;;0.00;0.00;;;;;;;11.09;98.73;101304.97;4869382;29;20050;-74
2023/09/30 03:00:49;;;;;;;0.00;0.00;;;;;;;11.08;98.98;101289.63;4879992;29;20033;-74
2023/09/30 03:03:15;;;;;;;0.00;0.00;;;;;;;11.17;99.34;101290.88;4886738;29;20039;-73
2023/09/30 03:05:42;;;;;;;0.00;0.00;;;;;;;11.15;98.90;101288.38;4885477;29;20060;-74
2023/09/30 03:08:07;;;;;;;0.00;0.00;;;;;;;11.26;98.48;101305.00;4868472;29;20037;-73
2023/09/30 03:10:35;;;;;;;0.00;0.00;;;;;;;11.28;98.80;101289.13;4866953;29;20065;-74
2023/09/30 03:13:03;;;;;;;0.00;0.00;;;;;;;11.29;98.45;101275.19;4876086;29;20054;-74
2023/09/30 03:15:30;;;;;;;0.00;0.00;;;;;;;11.38;98.75;101289.28;4866111;29;20467;-74
2023/09/30 03:17:56;;;;;;;0.00;0.00;;;;;;;11.43;98.26;101291.28;4872845;29;20124;-72
2023/09/30 03:20:24;;;;;;;0.00;0.00;;;;;;;11.43;97.88;101292.09;4873214;29;20051;-74
2023/09/30 03:22:50;;;;;;;0.00;0.00;;;;;;;11.46;97.83;101301.72;4882865;29;20032;-75
2023/09/30 03:25:18;;;;;;;0.00;0.00;;;;;;;11.50;98.03;101298.22;4887539;29;20638;-74
2023/09/30 03:27:47;;;;;;;0.00;0.00;;;;;;;11.49;98.07;101295.75;4869937;29;20127;-75
2023/09/30 03:30:15;;;;;;;0.00;0.00;;;;;;;11.52;97.67;101292.50;4869605;29;20027;-74
2023/09/30 03:32:41;;;;;;;0.00;0.00;;;;;;;11.48;97.54;101275.75;4868326;29;20080;-74
2023/09/30 03:35:10;;;;;;;0.00;0.00;;;;;;;11.50;97.40;101264.53;4886813;29;20115;-73
2023/09/30 03:37:39;;;;;;;0.00;0.00;;;;;;;11.47;97.74;101260.38;4887923;29;20153;-74
2023/09/30 03:40:12;;;;;;;0.00;0.00;;;;;;;11.47;97.79;101248.59;4881759;29;20036;-74
2023/09/30 03:42:39;;;;;;;0.00;0.00;;;;;;;11.49;97.78;101249.19;4870650;29;20048;-74
2023/09/30 03:45:09;;;;;;;0.00;0.00;;;;;;;11.47;97.93;101243.94;4882594;29;20020;-74
2023/09/30 03:47:36;;;;;;;0.00;0.00;;;;;;;11.50;97.71;101242.63;4890228;29;20092;-74
2023/09/30 03:50:03;;;;;;;0.00;0.00;;;;;;;11.51;97.80;101249.78;4867530;29;20029;-74
2023/09/30 03:52:29;;;;;;;0.00;0.00;;;;;;;11.50;97.09;101253.59;4876967;29;20494;-74
2023/09/30 03:54:54;;;;;;;0.00;0.00;;;;;;;11.46;97.30;101255.16;4877291;29;20045;-75
2023/09/30 03:57:20;;;;;;;0.00;0.00;;;;;;;11.41;97.71;101241.41;4879447;29;20041;-74
2023/09/30 03:59:46;;;;;;;0.00;0.00;;;;;;;11.37;97.79;101243.81;4871241;29;20025;-74
2023/09/30 04:02:12;;;;;;;0.00;0.00;;;;;;;11.38;97.93;101244.66;4858120;29;20153;-74
2023/09/30 04:04:38;;;;;;;0.00;0.00;;;;;;;11.34;97.52;101239.66;4858384;29;20203;-74
2023/09/30 04:07:05;;;;;;;0.00;0.00;;;;;;;11.32;97.83;101241.81;4890077;29;20156;-76
2023/09/30 04:09:35;;;;;;;0.00;0.00;;;;;;;11.27;97.39;101228.06;4868155;29;20039;-75
2023/09/30 04:12:01;;;;;;;0.00;0.00;;;;;;;11.38;98.13;101241.91;4884188;29;20119;-75
2023/09/30 04:14:26;;;;;;;0.00;0.00;;;;;;;11.38;98.03;101248.22;4885080;29;20104;-74
2023/09/30 04:16:53;;;;;;;0.00;0.00;;;;;;;11.37;97.55;101249.28;4893328;29;20115;-74
2023/09/30 04:19:20;;;;;;;0.00;0.00;;;;;;;11.34;97.58;101239.66;4875398;29;20017;-74
2023/09/30 04:21:50;;;;;;;0.00;0.00;;;;;;;11.30;97.40;101233.03;4874479;29;20033;-74
2023/09/30 04:24:19;;;;;;;0.00;0.00;;;;;;;11.39;97.10;101235.34;4884872;29;20123;-75
2023/09/30 04:26:45;;;;;;;0.00;0.00;;;;;;;11.39;97.14;101238.06;4884189;29;20169;-74
2023/09/30 04:29:11;;;;;;;0.00;0.00;;;;;;;11.42;97.79;101245.78;4886384;29;20033;-74
2023/09/30 04:31:41;;;;;;;0.00;0.00;;;;;;;11.35;97.70;101235.03;4887689;29;21787;-74
2023/09/30 04:34:07;;;;;;;0.00;0.00;;;;;;;11.43;97.40;101247.44;4886554;29;20118;-75
2023/09/30 04:36:35;;;;;;;0.00;0.00;;;;;;;11.43;97.28;101248.25;4881028;29;20052;-73
2023/09/30 04:39:01;;;;;;;0.00;0.00;;;;;;;11.46;98.13;101249.69;4889706;29;20024;-75
2023/09/30 04:41:28;;;;;;;0.00;0.00;;;;;;;11.47;97.95;101248.59;4875251;29;20511;-73
2023/09/30 04:43:54;;;;;;;0.00;0.00;;;;;;;11.51;97.70;101247.03;4881740;29;20036;-73
2023/09/30 04:46:23;;;;;;;0.00;0.00;;;;;;;11.37;97.36;101224.63;4895973;29;20035;-74
2023/09/30 04:48:51;;;;;;;0.00;0.00;;;;;;;11.44;97.12;101227.22;4876886;29;20555;-73
2023/09/30 04:51:22;;;;;;;0.00;0.00;;;;;;;11.44;97.96;101227.22;4883813;29;20064;-72
2023/09/30 04:53:47;;;;;;;0.00;0.00;;;;;;;11.55;97.64;101245.44;4875902;29;20035;-74
2023/09/30 04:56:13;;;;;;;0.00;0.00;;;;;;;11.44;96.92;101221.72;4886573;29;20159;-74
2023/09/30 04:58:41;;;;;;;0.00;0.00;;;;;;;11.54;97.10;101238.31;4887988;29;20029;-75
2023/09/30 05:01:09;;;;;;;0.00;0.00;;;;;;;11.41;97.32;101225.78;4876929;29;20072;-74
2023/09/30 05:03:39;;;;;;;0.00;0.00;;;;;;;11.37;97.43;101226.56;4884836;29;20088;-74
2023/09/30 05:06:07;;;;;;;0.00;0.00;;;;;;;11.42;96.86;101232.94;4878872;29;20387;-74
2023/09/30 05:08:33;;;;;;;0.00;0.00;;;;;;;11.35;97.31;101230.38;4879585;29;20032;-74
2023/09/30 05:10:59;;;;;;;0.00;0.00;;;;;;;11.44;97.04;101240.91;4882911;29;20048;-73
2023/09/30 05:13:24;;;;;;;0.00;0.00;;;;;;;11.37;97.19;101226.56;4877313;29;20129;-73
2023/09/30 05:15:53;;;;;;;0.00;0.00;;;;;;;11.30;97.69;101215.78;4866752;29;20036;-72
2023/09/30 05:18:19;;;;;;;0.00;0.00;;;;;;;11.25;98.07;101215.72;4880202;29;20044;-74
2023/09/30 05:20:44;;;;;;;0.00;0.00;;;;;;;11.15;97.93;101214.44;4884114;29;20028;-73
2023/09/30 05:23:14;;;;;;;0.00;0.00;;;;;;;11.11;98.50;101223.44;4881117;29;20033;-75
2023/09/30 05:25:39;;;;;;;0.00;0.00;;;;;;;11.07;98.37;101239.53;4883433;29;20139;-73
2023/09/30 05:28:06;;;;;;;0.00;0.00;;;;;;;11.02;98.85;101239.44;4877558;29;20547;-73
2023/09/30 05:30:33;;;;;;;0.00;0.00;;;;;;;10.98;98.87;101241.84;4885783;29;20452;-74
2023/09/30 05:33:00;;;;;;;0.00;0.00;;;;;;;10.93;99.26;101228.06;4865670;29;20041;-73
2023/09/30 05:35:25;;;;;;;0.00;0.00;;;;;;;10.98;98.83;101241.84;4884745;29;20031;-73
2023/09/30 05:37:52;;;;;;;0.00;0.00;;;;;;;10.95;99.02;101247.84;4882351;29;20025;-73
2023/09/30 05:40:25;;;;;;;0.00;0.00;;;;;;;10.93;99.12;101244.50;4882219;29;20044;-73
2023/09/30 05:42:55;;;;;;;0.00;0.00;;;;;;;10.92;98.77;101253.81;4854662;29;20395;-74
2023/09/30 05:45:23;;;;;;;0.00;0.00;;;;;;;10.87;99.09;101240.03;4866417;29;20391;-74
2023/09/30 05:47:49;;;;;;;0.00;0.00;;;;;;;10.79;99.47;101249.47;4869435;29;20024;-73
2023/09/30 05:50:16;;;;;;;0.00;0.00;;;;;;;10.71;99.84;101246.31;4862922;29;20057;-73
2023/09/30 05:52:45;;;;;;;0.00;0.00;;;;;;;10.61;99.61;101250.50;4851135;29;20096;-74
2023/09/30 05:55:10;;;;;;;0.00;0.00;;;;;;;10.51;100.00;101247.59;4871112;29;20131;-74
2023/09/30 05:57:36;;;;;;;0.00;0.00;;;;;;;10.38;100.00;101250.63;4892179;29;21627;-73
2023/09/30 06:00:20;;;;;;;0.00;0.00;;;;;;;10.36;100.00;101275.47;4887602;29;20028;-74
2023/09/30 06:02:47;;;;;;;0.00;0.00;;;;;;;10.27;100.00;101277.75;4854979;29;20032;-76
2023/09/30 06:05:22;;;;;;;0.00;0.00;;;;;;;10.14;100.00;101253.44;4865394;29;20033;-78
2023/09/30 06:07:48;;;;;;;0.00;0.00;;;;;;;10.06;100.00;101256.53;4872692;29;20468;-72
2023/09/30 06:10:18;;;;;;;0.00;0.00;;;;;;;10.14;100.00;101269.81;4885034;29;20071;-72
2023/09/30 06:12:44;;;;;;;0.00;0.00;;;;;;;10.11;100.00;101264.84;4884241;29;20055;-73
2023/09/30 06:15:21;;;;;;;0.00;0.00;;;;;;;9.95;100.00;101239.94;4870283;29;20040;-72
2023/09/30 06:17:47;;;;;;;0.00;0.00;;;;;;;9.84;100.00;101229.88;4871291;29;20024;-73
2023/09/30 06:20:18;;;;;;;0.00;0.00;;;;;;;9.86;100.00;101241.41;4888377;29;20119;-74
2023/09/30 06:22:49;;;;;;;0.00;0.00;;;;;;;10.00;100.00;101265.72;4865685;29;20047;-74
2023/09/30 06:25:24;;;;;;;0.00;0.00;;;;;;;9.86;100.00;101241.41;4847441;29;20469;-74
2023/09/30 06:27:50;;;;;;;0.00;0.00;;;;;;;9.79;100.00;101229.75;4868597;29;20514;-74
2023/09/30 06:30:21;;;;;;;0.00;0.00;;;;;;;9.82;100.00;101242.94;4866584;29;20044;-73
2023/09/30 06:32:50;;;;;;;0.00;0.00;;;;;;;9.93;100.00;101261.22;4872050;29;20101;-74
2023/09/30 06:35:15;;;;;;;0.00;0.00;;;;;;;9.97;100.00;101261.53;4867914;29;20124;-73
2023/09/30 06:37:46;;;;;;;0.00;0.00;;;;;;;9.94;100.00;101246.50;4867987;29;20044;-73
2023/09/30 06:40:12;;;;;;;0.00;0.00;;;;;;;9.96;100.00;101258.00;4858294;29;20025;-72
2023/09/30 06:42:39;;;;;;;0.00;0.00;;;;;;;10.12;100.00;101278.28;4889957;29;20067;-73
2023/09/30 06:45:15;;;;;;;0.00;0.00;;;;;;;10.20;100.00;101285.25;4884141;29;20103;-73
2023/09/30 06:47:41;;;;;;;0.00;0.00;;;;;;;10.16;100.00;101275.88;4861075;29;20041;-72
2023/09/30 06:50:16;;;;;;;0.00;0.00;;;;;;;10.11;100.00;101268.41;4878260;29;20044;-74
2023/09/30 06:52:45;;;;;;;0.00;0.00;;;;;;;10.40;100.00;101295.81;4889095;29;20487;-74
2023/09/30 06:55:13;;;;;;;0.00;0.00;;;;;;;10.33;100.00;101272.38;4866195;29;20047;-74
2023/09/30 06:57:46;;;;;;;0.00;0.00;;;;;;;10.48;100.00;101292.69;4884374;29;20037;-74
2023/09/30 07:00:13;;;;;;;0.00;0.00;;;;;;;10.65;100.00;101298.19;4884487;29;20438;-75
2023/09/30 07:02:40;;;;;;;0.00;0.00;;;;;;;10.78;100.00;101291.59;4887308;29;20148;-76
2023/09/30 07:05:10;;;;;;;0.00;0.00;;;;;;;10.92;100.00;101286.63;4871263;29;20021;-76
2023/09/30 07:07:36;;;;;;;0.00;0.00;;;;;;;11.10;100.00;101293.78;4889389;29;20028;-76
2023/09/30 07:10:04;;;;;;;0.00;0.00;;;;;;;11.27;100.00;101296.53;4858244;29;20032;-75
2023/09/30 07:12:32;;;;;;;0.00;0.00;;;;;;;11.43;99.60;101310.44;4870489;29;20048;-74
2023/09/30 07:15:01;;;;;;;0.00;0.00;;;;;;;11.50;99.56;101300.16;4868562;29;20415;-74
2023/09/30 07:17:30;;;;;;;0.00;0.00;;;;;;;11.60;98.99;101300.28;4849416;29;20471;-74
2023/09/30 07:19:56;;;;;;;0.00;0.00;;;;;;;11.79;99.14;101305.50;4885570;29;20028;-73
2023/09/30 07:22:23;;;;;;;0.00;0.00;;;;;;;11.84;98.67;101302.81;4848703;29;20041;-73
2023/09/30 07:24:49;;;;;;;0.00;0.00;;;;;;;12.09;98.22;101318.81;4850557;29;20182;-74
2023/09/30 07:27:14;;;;;;;0.00;0.00;;;;;;;12.37;98.46;101306.81;4860612;29;20462;-75
2023/09/30 07:29:43;;;;;;;0.00;0.00;;;;;;;12.83;97.77;101319.38;4839431;29;20041;-74
2023/09/30 07:32:09;;;;;;;0.00;0.00;;;;;;;13.12;95.67;101317.16;4858048;29;20041;-73
2023/09/30 07:34:35;;;;;;;0.00;0.00;;;;;;;13.34;94.18;101308.88;4858459;29;20084;-72
2023/09/30 07:37:00;;;;;;;0.00;0.00;;;;;;;13.63;93.50;101305.78;4871839;29;20037;-74
2023/09/30 07:39:26;;;;;;;0.00;0.00;;;;;;;14.29;92.41;101312.69;4888358;29;20392;-74
2023/09/30 07:41:51;;;;;;;0.00;0.00;;;;;;;15.35;88.07;101315.13;4876019;29;20131;-74
2023/09/30 07:44:16;;;;;;;0.00;0.00;;;;;;;16.42;83.01;101313.19;4837119;29;20040;-74
2023/09/30 07:46:43;;;;;;;0.00;0.00;;;;;;;18.02;77.23;101328.50;4857761;29;20024;-74
2023/09/30 07:49:11;;;;;;;0.00;0.00;;;;;;;19.73;69.93;101338.75;4840990;29;20037;-75
2023/09/30 07:51:39;;;;;;;0.00;0.00;;;;;;;21.04;64.37;101337.41;4875259;29;20039;-75
2023/09/30 07:54:05;;;;;;;0.00;0.00;;;;;;;22.29;60.06;101331.06;4844764;29;20372;-75
2023/09/30 07:56:30;;;;;;;0.00;0.00;;;;;;;23.38;57.39;101332.16;4866625;29;20037;-74
2023/09/30 07:58:55;;;;;;;0.00;0.00;;;;;;;24.38;54.21;101331.94;4858409;29;20088;-74
2023/09/30 08:01:21;;;;;;;0.00;0.00;;;;;;;25.52;51.80;101337.44;4869056;29;20029;-74
2023/09/30 08:03:47;;;;;;;0.00;0.00;;;;;;;26.81;48.86;101323.22;4879482;29;20047;-73
2023/09/30 08:06:12;;;;;;;0.00;0.00;;;;;;;27.99;46.41;101320.03;4846721;29;20045;-74
2023/09/30 08:08:43;;;;;;;0.00;0.00;;;;;;;29.29;43.08;101308.00;4849611;29;20039;-74
2023/09/30 08:14:55;;;;;;;0.00;0.00;;;;;;;31.42;38.39;101318.38;4781895;29;20100;-75
2023/09/30 08:17:23;;;;;;;0.00;0.00;;;;;;;29.33;40.84;101300.44;4852597;29;20024;-74
2023/09/30 08:19:49;;;;;;;0.00;0.00;;;;;;;27.00;44.81;101309.34;4850319;29;20036;-74
2023/09/30 08:22:17;;;;;;;0.00;0.00;;;;;;;25.05;49.12;101302.16;4883966;29;20024;-74
2023/09/30 08:24:44;;;;;;;0.00;0.00;;;;;;;23.91;52.11;101292.94;4868509;29;20036;-74
2023/09/30 08:27:18;;;;;;;0.00;0.00;;;;;;;23.60;53.31;101328.31;4890504;29;20096;-74
2023/09/30 08:29:44;;;;;;;0.00;0.00;;;;;;;25.61;50.19;101335.38;4867217;29;20036;-74
2023/09/30 08:32:09;;;;;;;0.00;0.00;;;;;;;26.05;48.01;101325.63;4875673;29;20498;-74
2023/09/30 08:34:37;;;;;;;0.00;0.00;;;;;;;25.66;48.48;101330.72;4853038;29;20029;-73
2023/09/30 08:37:03;;;;;;;0.00;0.00;;;;;;;25.57;49.18;101340.03;4882820;29;20079;-74
2023/09/30 08:39:29;;;;;;;0.00;0.00;;;;;;;24.84;49.72;101329.34;4870514;29;20033;-75
2023/09/30 08:41:56;;;;;;;0.00;0.00;;;;;;;23.59;51.71;101311.91;4868408;29;20095;-77
2023/09/30 08:44:21;;;;;;;0.00;0.00;;;;;;;22.84;53.43;101313.78;4889912;29;20025;-73
2023/09/30 08:46:49;;;;;;;0.00;0.00;;;;;;;22.28;54.14;101318.28;4851382;29;20036;-73
2023/09/30 08:49:15;;;;;;;0.00;0.00;;;;;;;21.88;55.38;101312.75;4869626;29;20028;-73
2023/09/30 08:51:40;;;;;;;0.00;0.00;;;;;;;21.49;55.94;101320.72;4838919;29;20025;-74
2023/09/30 08:54:08;;;;;;;0.00;0.00;;;;;;;21.12;57.28;101321.97;4871262;29;20096;-74
2023/09/30 08:56:34;;;;;;;0.00;0.00;;;;;;;21.03;57.90;101314.38;4886518;29;20095;-73
2023/09/30 08:59:02;;;;;;;0.00;0.00;;;;;;;20.95;58.24;101317.88;4852834;29;20467;-74
2023/09/30 09:01:30;;;;;;;0.00;0.00;;;;;;;21.03;58.57;101303.25;4872515;29;20029;-76
2023/09/30 09:03:56;;;;;;;0.00;0.00;;;;;;;21.37;58.10;101314.91;4884378;29;20039;-73
2023/09/30 09:06:23;;;;;;;0.00;0.00;;;;;;;22.20;56.94;101316.31;4872167;29;20048;-74
2023/09/30 09:08:48;;;;;;;0.00;0.00;;;;;;;23.24;54.31;101298.03;4870847;29;20025;-74
2023/09/30 09:11:14;;;;;;;0.00;0.00;;;;;;;23.40;52.55;101298.34;4868215;29;20047;-74
2023/09/30 09:14:00;;;;;;;0.00;0.00;;;;;;;23.06;50.68;101292.47;4883230;29;20127;-74
2023/09/30 09:16:25;;;;;;;0.00;0.00;;;;;;;22.97;51.95;101316.75;4861107;29;20096;-75
2023/09/30 09:18:51;;;;;;;0.00;0.00;;;;;;;23.41;51.77;101308.31;4857055;29;20040;-74
2023/09/30 09:21:23;;;;;;;0.00;0.00;;;;;;;26.52;48.80;101304.66;4850303;29;20033;-72
2023/09/30 09:23:51;;;;;;;0.00;0.00;;;;;;;29.84;41.36;101307.78;4872651;29;20092;-73
2023/09/30 09:26:28;;;;;;;0.00;0.00;;;;;;;30.56;39.72;101308.88;4845359;29;20043;-73
2023/09/30 09:28:58;;;;;;;0.00;0.00;;;;;;;32.86;34.54;101287.53;4865181;29;20036;-74
2023/09/30 09:31:29;;;;;;;0.00;0.00;;;;;;;32.68;33.94;101290.25;4885270;29;20432;-74
2023/09/30 09:33:54;;;;;;;0.00;0.00;;;;;;;31.17;35.59;101292.72;4892334;29;20328;-74
2023/09/30 09:36:20;;;;;;;0.00;0.00;;;;;;;30.27;37.50;101291.50;4882399;29;20032;-74
2023/09/30 09:38:46;;;;;;;0.00;0.00;;;;;;;29.36;38.01;101300.47;4871839;29;20021;-74
2023/09/30 09:41:11;;;;;;;0.00;0.00;;;;;;;29.78;38.75;101299.59;4871771;29;20059;-74
2023/09/30 09:43:37;;;;;;;0.00;0.00;;;;;;;30.03;38.12;101282.31;4875317;29;20377;-73
2023/09/30 09:46:07;;;;;;;0.00;0.00;;;;;;;32.72;35.36;101288.25;4893920;29;20089;-74
2023/09/30 09:48:36;;;;;;;0.00;0.00;;;;;;;36.21;30.44;101286.41;4871711;29;20035;-73
2023/09/30 09:51:07;;;;;;;0.00;0.00;;;;;;;36.21;29.86;101275.03;4874051;29;20067;-74
2023/09/30 09:53:37;;;;;;;0.00;0.00;;;;;;;37.25;28.16;101270.06;4860104;29;20033;-73
2023/09/30 09:56:05;;;;;;;0.00;0.00;;;;;;;38.38;26.14;101256.25;4891264;29;20033;-73
2023/09/30 09:58:34;;;;;;;0.00;0.00;;;;;;;36.42;26.58;101268.34;4883376;29;20039;-75
2023/09/30 10:01:02;;;;;;;0.00;0.00;;;;;;;32.71;30.03;101250.66;4888516;29;20021;-72
2023/09/30 10:03:27;;;;;;;0.00;0.00;;;;;;;29.65;33.98;101239.00;4896870;29;20032;-73
2023/09/30 10:05:54;;;;;;;0.00;0.00;;;;;;;30.16;34.00;101245.44;4886019;29;20025;-74
2023/09/30 10:08:23;;;;;;;0.00;0.00;;;;;;;29.90;34.78;101244.25;4886649;29;20043;-75
2023/09/30 10:10:49;;;;;;;0.00;0.00;;;;;;;30.00;34.28;101232.31;4885603;29;20542;-74
2023/09/30 10:13:52;;;;;;;0.00;0.00;;;;;;;29.22;34.69;101238.28;4875453;29;20033;-74
2023/09/30 10:16:36;;;;;;;0.00;0.00;;;;;;;28.70;35.93;101235.66;4886729;29;20021;-75
2023/09/30 10:19:20;;;;;;;0.00;0.00;;;;;;;28.75;35.22;101236.53;4880514;29;20037;-74
2023/09/30 10:22:19;;;;;;;0.00;0.00;;;;;;;26.42;38.32;101233.09;4881528;29;20467;-75
2023/09/30 10:24:56;;;;;;;0.00;0.00;;;;;;;24.27;42.31;101208.56;4871759;29;20040;-74
2023/09/30 10:27:25;;;;;;;0.00;0.00;;;;;;;22.93;45.82;101213.41;4883813;29;20312;-73
2023/09/30 10:30:19;;;;;;;0.00;0.00;;;;;;;22.09;48.59;101215.50;4883822;29;20032;-72
2023/09/30 10:32:50;;;;;;;0.00;0.00;;;;;;;22.13;49.27;101228.44;4869972;29;20456;-72
2023/09/30 10:35:31;;;;;;;0.00;0.00;;;;;;;22.03;49.90;101223.19;4878430;29;20029;-74
2023/09/30 10:38:22;;;;;;;0.00;0.00;;;;;;;21.78;50.27;101228.38;4871766;29;20025;-74
2023/09/30 10:40:48;;;;;;;0.00;0.00;;;;;;;21.57;51.59;101221.78;4863013;29;20057;-73
2023/09/30 10:43:43;;;;;;;0.00;0.00;;;;;;;21.56;51.86;101206.22;4870138;29;20577;-73
2023/09/30 10:46:29;;;;;;;0.00;0.00;;;;;;;;;;4841962;29;20052;-74
2023/09/30 10:48:55;;;;;;;0.00;0.00;;;;;;;22.06;51.38;101211.41;4867494;29;20061;-73
2023/09/30 10:51:23;;;;;;;0.00;0.00;;;;;;;21.84;51.21;101206.78;4871301;29;20514;-72
2023/09/30 10:53:59;;;;;;;0.00;0.00;;;;;;;22.14;51.32;101204.22;4871309;29;20376;-74
2023/09/30 10:56:33;;;;;;;0.00;0.00;;;;;;;23.23;49.68;101195.94;4877067;29;20479;-73
2023/09/30 10:58:59;;;;;;;0.00;0.00;;;;;;;23.83;48.03;101203.22;4883714;29;20539;-73
2023/09/30 11:01:25;;;;;;;0.00;0.00;;;;;;;24.08;46.81;101197.00;4891663;29;20055;-74
2023/09/30 11:03:59;;;;;;;0.00;0.00;;;;;;;23.96;46.92;101194.97;4889595;29;20487;-74
2023/09/30 11:06:31;;;;;;;;;;;;;;;23.54;47.27;101209.63;4857325;29;20043;-75
2023/09/30 11:08:59;;;;;;;0.00;0.00;;;;;;;23.01;47.45;101209.78;4867635;29;19915;-73
2023/09/30 11:11:43;;;;;;;0.00;0.00;;;;;;;22.86;48.11;101203.91;4868126;29;20506;-74
2023/09/30 11:25:41;;;;;;;0.00;0.00;;;;;;;24.90;41.97;101200.13;4717199;30;20211;-74
2023/09/30 11:28:16;;;;;;;0.00;0.00;;;;;;;25.76;40.01;101212.63;4724669;30;20047;-74
2023/09/30 11:30:59;;;;;;;0.00;0.00;;;;;;;25.74;38.97;101203.75;4755991;29;20053;-74
2023/09/30 11:33:25;;;;;;;0.00;0.00;;;;;;;25.41;39.76;101213.09;4884043;29;20051;-74
2023/09/30 11:36:06;;;;;;;0.00;0.00;;;;;;;24.85;40.39;101207.91;4887119;29;20036;-74
2023/09/30 11:38:34;;;;;;;0.00;0.00;;;;;;;25.25;41.05;101210.13;4881033;29;20033;-74
2023/09/30 11:41:06;;;;;;;0.00;0.00;;;;;;;26.07;39.85;101188.78;4888581;29;20535;-74
2023/09/30 11:43:32;;;;;;;0.00;0.00;;;;;;;26.76;39.53;101197.22;4879129;29;20039;-73
2023/09/30 11:46:08;;;;;;;0.00;0.00;;;;;;;26.95;37.93;101190.91;4870572;29;20029;-74